Pagina principale
METAR-TAF:

METAR-TAF

Aeroporti :

Capo Mele

Andora, Italia

latitudine: 43-57N, longitudine: 008-10E, altezza: 220 m

Osservazione

Il bollettino è stato emesso 1 ora e 0 minuti fa, alle 17:55 UTC
Vento 7 kt da ovest/sud-ovest
Temperature 11°C
Umidità 82%
Pressione 1028 hPa
Visibilità 10 km o più
Poco nuvoloso ad un'altezza di 1000 ft
Nubi sparse ad un'altezza di 2500 ft

METAR: LIMU 161755Z 25007KT 9999 FEW010 SCT025 11/08 Q1028 RMK BKN BKN100 QUK / QUL / VIS MAR 15 KM VIS MIN 9999

Ora: 19:55 (18:55 UTC)


TAF: mancante

Osservazioni e previsioni meteorologiche di più di 4000 aeroporti (messaggi METAR e TAF).

Le stazioni disponibili sono rappresentate dai dischi gialli e rossi sulla carta.

Puntare il mouse per vedere il nome della stazione.

Clicca sopra per visualizzare le osservazioni e previsioni meteorologiche.

Per cambiare la mappa : fare clic sui pulsanti verdi con una croce nera per ingrandire, il pulsante verde con un trattino per diminuire, o sulla freccia verde per le mappe adiacenti.


METAR-TAF: